Dati Storici

Data ora Umidita' aria (%) Temperatura aria (°C) Rad globale (W/m²) Gonioanemometro (°) Tacoanemometro (m/s) Pioggia (mm)
17-06-2020 10:10 61 % 24.008 -63.14 1.688 0 0
17-06-2020 10:00 64 % 23.828 -54.764 -0.027 0 0
17-06-2020 09:50 67.3 % 23.531 -56.035 1.503 0 0
17-06-2020 09:40 68 % 23.569 -49.092 0.593 0 0
17-06-2020 09:30 66.4 % 23.393 -35.825 1.384 0 0
17-06-2020 09:20 65.6 % 22.821 -61.702 0.87 0 0
17-06-2020 09:10 66.7 % 22.764 -55.998 1.214 0 0
17-06-2020 09:00 66.4 % 23.37 -45.405 -0.04 0 0
17-06-2020 08:50 66 % 23.686 -54.375 0.604 0 0
17-06-2020 08:40 66.9 % 23.327 -51.571 -0.038 0 0
17-06-2020 08:30 69.9 % 23.288 -59.285 0.52 0 0
17-06-2020 08:20 71.5 % 22.487 -46.09 -0.031 0 0
17-06-2020 08:10 70.1 % 22.359 -45.719 1.368 0 0
17-06-2020 08:00 68.3 % 22.747 -67.132 -0.039 0 0
17-06-2020 07:50 71.8 % 22.083 -58.582 -0.038 0 0
17-06-2020 07:40 71.3 % 22 -67.474 0.729 0 0
17-06-2020 07:30 72.6 % 23.011 -65.653 -0.032 0 0
17-06-2020 07:20 76.6 % 21.696 -66.428 -0.026 0 0
17-06-2020 07:10 81.2 % 20.947 -80.279 -0.017 0 0
17-06-2020 07:00 85.3 % 20.14 -76.914 -0.017 0 0

I dati sono presentati in modo automatico a scopo informativo. In seguito a verifica i dati possono subire modifiche o essere invalidati e non riportati negli archivi definitivi.